sensor_id;sensor_type;location;lat;lon;timestamp;temperature;humidity
52024;DHT22;38038;45.922;13.604;2023-05-10T00:02:07;15.40;92.50
52024;DHT22;38038;45.922;13.604;2023-05-10T00:04:32;15.30;93.20
52024;DHT22;38038;45.922;13.604;2023-05-10T00:06:58;15.40;92.90
52024;DHT22;38038;45.922;13.604;2023-05-10T00:09:24;15.30;92.50
52024;DHT22;38038;45.922;13.604;2023-05-10T00:11:50;15.30;92.60
52024;DHT22;38038;45.922;13.604;2023-05-10T00:14:16;15.30;91.80
52024;DHT22;38038;45.922;13.604;2023-05-10T00:16:41;15.30;92.10
52024;DHT22;38038;45.922;13.604;2023-05-10T00:19:07;15.30;92.60
52024;DHT22;38038;45.922;13.604;2023-05-10T00:21:33;15.20;92.90
52024;DHT22;38038;45.922;13.604;2023-05-10T00:23:59;15.10;93.40
52024;DHT22;38038;45.922;13.604;2023-05-10T00:26:25;15.20;92.60
52024;DHT22;38038;45.922;13.604;2023-05-10T00:28:51;15.20;93.00
52024;DHT22;38038;45.922;13.604;2023-05-10T00:31:16;15.10;93.20
52024;DHT22;38038;45.922;13.604;2023-05-10T00:33:42;15.10;92.80
52024;DHT22;38038;45.922;13.604;2023-05-10T00:36:08;15.20;92.80
52024;DHT22;38038;45.922;13.604;2023-05-10T00:38:34;15.20;92.90
52024;DHT22;38038;45.922;13.604;2023-05-10T00:41:00;15.10;93.30
52024;DHT22;38038;45.922;13.604;2023-05-10T00:43:25;15.10;93.20
52024;DHT22;38038;45.922;13.604;2023-05-10T00:45:51;15.00;93.00
52024;DHT22;38038;45.922;13.604;2023-05-10T00:48:18;15.00;92.80
52024;DHT22;38038;45.922;13.604;2023-05-10T00:50:44;14.90;93.00
52024;DHT22;38038;45.922;13.604;2023-05-10T00:53:10;14.90;93.30
52024;DHT22;38038;45.922;13.604;2023-05-10T00:55:36;14.90;93.00
52024;DHT22;38038;45.922;13.604;2023-05-10T00:58:02;15.00;93.10
52024;DHT22;38038;45.922;13.604;2023-05-10T01:00:28;14.90;93.10
52024;DHT22;38038;45.922;13.604;2023-05-10T01:02:55;14.90;93.20
52024;DHT22;38038;45.922;13.604;2023-05-10T01:05:21;14.90;93.20
52024;DHT22;38038;45.922;13.604;2023-05-10T01:07:46;14.90;93.20
52024;DHT22;38038;45.922;13.604;2023-05-10T01:10:12;14.90;93.50
52024;DHT22;38038;45.922;13.604;2023-05-10T01:12:41;14.90;93.50
52024;DHT22;38038;45.922;13.604;2023-05-10T01:15:09;14.80;93.70
52024;DHT22;38038;45.922;13.604;2023-05-10T01:17:37;14.90;93.80
52024;DHT22;38038;45.922;13.604;2023-05-10T01:20:05;14.90;93.60
52024;DHT22;38038;45.922;13.604;2023-05-10T01:34:17;14.90;94.30
52024;DHT22;38038;45.922;13.604;2023-05-10T01:36:53;14.70;94.00
52024;DHT22;38038;45.922;13.604;2023-05-10T01:39:45;14.70;94.20
52024;DHT22;38038;45.922;13.604;2023-05-10T01:42:20;14.80;94.40
52024;DHT22;38038;45.922;13.604;2023-05-10T01:45:03;14.80;94.50
52024;DHT22;38038;45.922;13.604;2023-05-10T01:47:43;14.80;94.60
52024;DHT22;38038;45.922;13.604;2023-05-10T01:50:22;14.80;94.70
52024;DHT22;38038;45.922;13.604;2023-05-10T01:52:55;14.90;94.60
52024;DHT22;38038;45.922;13.604;2023-05-10T01:55:22;14.80;94.80
52024;DHT22;38038;45.922;13.604;2023-05-10T01:57:55;14.90;94.80
52024;DHT22;38038;45.922;13.604;2023-05-10T02:00:22;14.80;95.10
52024;DHT22;38038;45.922;13.604;2023-05-10T02:02:49;14.80;95.00
52024;DHT22;38038;45.922;13.604;2023-05-10T02:05:16;14.80;95.30
52024;DHT22;38038;45.922;13.604;2023-05-10T02:07:43;14.80;95.30
52024;DHT22;38038;45.922;13.604;2023-05-10T02:10:10;14.80;95.20
52024;DHT22;38038;45.922;13.604;2023-05-10T02:12:39;14.80;95.40
52024;DHT22;38038;45.922;13.604;2023-05-10T02:15:07;14.80;95.60
52024;DHT22;38038;45.922;13.604;2023-05-10T02:17:35;14.70;95.50
52024;DHT22;38038;45.922;13.604;2023-05-10T02:20:03;14.70;95.80
52024;DHT22;38038;45.922;13.604;2023-05-10T02:22:30;14.70;95.70
52024;DHT22;38038;45.922;13.604;2023-05-10T02:24:58;14.70;96.20
52024;DHT22;38038;45.922;13.604;2023-05-10T02:27:27;14.70;95.90
52024;DHT22;38038;45.922;13.604;2023-05-10T02:29:53;14.70;96.20
52024;DHT22;38038;45.922;13.604;2023-05-10T02:32:22;14.70;96.20
52024;DHT22;38038;45.922;13.604;2023-05-10T02:34:50;14.70;96.90
52024;DHT22;38038;45.922;13.604;2023-05-10T02:37:19;14.70;96.60
52024;DHT22;38038;45.922;13.604;2023-05-10T02:39:47;14.60;96.60
52024;DHT22;38038;45.922;13.604;2023-05-10T02:42:18;14.60;96.60
52024;DHT22;38038;45.922;13.604;2023-05-10T02:44:48;14.60;96.50
52024;DHT22;38038;45.922;13.604;2023-05-10T02:47:16;14.50;96.80
52024;DHT22;38038;45.922;13.604;2023-05-10T02:49:42;14.60;97.10
52024;DHT22;38038;45.922;13.604;2023-05-10T02:52:08;14.60;97.00
52024;DHT22;38038;45.922;13.604;2023-05-10T02:54:44;14.60;97.00
52024;DHT22;38038;45.922;13.604;2023-05-10T02:57:16;14.60;97.00
52024;DHT22;38038;45.922;13.604;2023-05-10T02:59:45;14.50;97.20
52024;DHT22;38038;45.922;13.604;2023-05-10T03:02:12;14.50;97.20
52024;DHT22;38038;45.922;13.604;2023-05-10T03:04:38;14.40;97.50
52024;DHT22;38038;45.922;13.604;2023-05-10T03:07:04;14.50;97.70
52024;DHT22;38038;45.922;13.604;2023-05-10T03:09:31;14.40;97.40
52024;DHT22;38038;45.922;13.604;2023-05-10T03:12:11;14.40;97.90
52024;DHT22;38038;45.922;13.604;2023-05-10T03:17:25;14.50;97.90
52024;DHT22;38038;45.922;13.604;2023-05-10T03:19:59;14.40;97.50
52024;DHT22;38038;45.922;13.604;2023-05-10T03:22:34;14.40;97.40
52024;DHT22;38038;45.922;13.604;2023-05-10T03:25:05;14.40;97.40
52024;DHT22;38038;45.922;13.604;2023-05-10T03:27:32;14.40;97.60
52024;DHT22;38038;45.922;13.604;2023-05-10T03:29:59;14.50;97.80
52024;DHT22;38038;45.922;13.604;2023-05-10T03:32:29;14.50;97.40
52024;DHT22;38038;45.922;13.604;2023-05-10T03:34:57;14.50;97.50
52024;DHT22;38038;45.922;13.604;2023-05-10T03:37:22;14.60;97.10
52024;DHT22;38038;45.922;13.604;2023-05-10T03:39:48;14.60;97.00
52024;DHT22;38038;45.922;13.604;2023-05-10T03:42:14;14.60;97.30
52024;DHT22;38038;45.922;13.604;2023-05-10T03:44:39;14.60;97.10
52024;DHT22;38038;45.922;13.604;2023-05-10T03:47:05;14.60;97.20
52024;DHT22;38038;45.922;13.604;2023-05-10T03:49:31;14.60;97.60
52024;DHT22;38038;45.922;13.604;2023-05-10T03:51:57;14.60;97.50
52024;DHT22;38038;45.922;13.604;2023-05-10T03:54:23;14.60;97.20
52024;DHT22;38038;45.922;13.604;2023-05-10T03:56:48;14.70;97.70
52024;DHT22;38038;45.922;13.604;2023-05-10T03:59:14;14.70;97.50
52024;DHT22;38038;45.922;13.604;2023-05-10T04:01:40;14.70;97.20
52024;DHT22;38038;45.922;13.604;2023-05-10T04:04:06;14.80;97.20
52024;DHT22;38038;45.922;13.604;2023-05-10T04:06:31;14.90;97.00
52024;DHT22;38038;45.922;13.604;2023-05-10T04:08:57;14.90;97.20
52024;DHT22;38038;45.922;13.604;2023-05-10T04:11:25;14.90;96.80
52024;DHT22;38038;45.922;13.604;2023-05-10T04:13:51;14.90;97.10
52024;DHT22;38038;45.922;13.604;2023-05-10T04:16:17;14.90;96.80
52024;DHT22;38038;45.922;13.604;2023-05-10T04:18:42;15.10;96.90
52024;DHT22;38038;45.922;13.604;2023-05-10T04:21:12;15.20;96.60
52024;DHT22;38038;45.922;13.604;2023-05-10T04:23:39;15.30;96.40
52024;DHT22;38038;45.922;13.604;2023-05-10T04:26:05;15.40;96.50
52024;DHT22;38038;45.922;13.604;2023-05-10T04:28:30;15.40;96.30
52024;DHT22;38038;45.922;13.604;2023-05-10T04:31:07;15.30;96.50
52024;DHT22;38038;45.922;13.604;2023-05-10T04:33:33;15.20;96.60
52024;DHT22;38038;45.922;13.604;2023-05-10T04:35:59;15.20;96.70
52024;DHT22;38038;45.922;13.604;2023-05-10T04:38:26;15.10;96.90
52024;DHT22;38038;45.922;13.604;2023-05-10T04:40:52;15.10;97.50
52024;DHT22;38038;45.922;13.604;2023-05-10T04:43:18;15.10;97.20
52024;DHT22;38038;45.922;13.604;2023-05-10T04:45:44;15.10;97.20
52024;DHT22;38038;45.922;13.604;2023-05-10T04:48:10;15.00;97.30
52024;DHT22;38038;45.922;13.604;2023-05-10T04:50:36;15.10;97.50
52024;DHT22;38038;45.922;13.604;2023-05-10T04:53:02;15.10;97.80
52024;DHT22;38038;45.922;13.604;2023-05-10T04:55:28;15.10;97.80
52024;DHT22;38038;45.922;13.604;2023-05-10T04:57:53;15.10;97.80
52024;DHT22;38038;45.922;13.604;2023-05-10T05:00:22;15.10;98.00
52024;DHT22;38038;45.922;13.604;2023-05-10T05:02:48;15.10;97.90
52024;DHT22;38038;45.922;13.604;2023-05-10T05:05:14;15.10;97.90
52024;DHT22;38038;45.922;13.604;2023-05-10T05:07:39;15.20;98.10
52024;DHT22;38038;45.922;13.604;2023-05-10T05:10:08;15.20;98.20
52024;DHT22;38038;45.922;13.604;2023-05-10T05:12:34;15.20;98.20
52024;DHT22;38038;45.922;13.604;2023-05-10T05:15:00;15.20;98.50
52024;DHT22;38038;45.922;13.604;2023-05-10T05:17:26;15.20;98.20
52024;DHT22;38038;45.922;13.604;2023-05-10T05:19:52;15.20;98.30
52024;DHT22;38038;45.922;13.604;2023-05-10T05:22:18;15.20;98.50
52024;DHT22;38038;45.922;13.604;2023-05-10T05:24:45;15.20;98.40
52024;DHT22;38038;45.922;13.604;2023-05-10T05:27:11;15.20;98.60
52024;DHT22;38038;45.922;13.604;2023-05-10T05:29:36;15.30;98.80
52024;DHT22;38038;45.922;13.604;2023-05-10T05:32:02;15.30;98.80
52024;DHT22;38038;45.922;13.604;2023-05-10T05:34:28;15.30;98.50
52024;DHT22;38038;45.922;13.604;2023-05-10T05:36:54;15.40;98.50
52024;DHT22;38038;45.922;13.604;2023-05-10T05:39:19;15.40;98.80
52024;DHT22;38038;45.922;13.604;2023-05-10T05:41:45;15.40;99.30
52024;DHT22;38038;45.922;13.604;2023-05-10T05:44:11;15.40;99.50
52024;DHT22;38038;45.922;13.604;2023-05-10T05:46:37;15.40;99.10
52024;DHT22;38038;45.922;13.604;2023-05-10T05:49:03;15.50;98.80
52024;DHT22;38038;45.922;13.604;2023-05-10T05:51:29;15.50;99.60
52024;DHT22;38038;45.922;13.604;2023-05-10T05:53:54;15.50;99.60
52024;DHT22;38038;45.922;13.604;2023-05-10T05:56:20;15.50;99.30
52024;DHT22;38038;45.922;13.604;2023-05-10T05:58:50;15.60;99.70
52024;DHT22;38038;45.922;13.604;2023-05-10T06:01:16;15.60;99.90
52024;DHT22;38038;45.922;13.604;2023-05-10T06:03:42;15.70;99.90
52024;DHT22;38038;45.922;13.604;2023-05-10T06:06:07;15.70;99.60
52024;DHT22;38038;45.922;13.604;2023-05-10T06:08:33;15.80;99.30
52024;DHT22;38038;45.922;13.604;2023-05-10T06:11:00;15.70;99.90
52024;DHT22;38038;45.922;13.604;2023-05-10T06:13:26;15.80;99.90
52024;DHT22;38038;45.922;13.604;2023-05-10T06:16:00;15.90;99.90
52024;DHT22;38038;45.922;13.604;2023-05-10T06:18:26;15.60;99.90
52024;DHT22;38038;45.922;13.604;2023-05-10T06:20:52;15.80;99.90
52024;DHT22;38038;45.922;13.604;2023-05-10T06:23:17;15.70;99.90
52024;DHT22;38038;45.922;13.604;2023-05-10T06:25:43;15.70;99.90
52024;DHT22;38038;45.922;13.604;2023-05-10T06:28:09;15.80;99.90
52024;DHT22;38038;45.922;13.604;2023-05-10T06:30:36;15.80;99.90
52024;DHT22;38038;45.922;13.604;2023-05-10T06:33:02;15.60;99.90
52024;DHT22;38038;45.922;13.604;2023-05-10T06:35:28;15.60;99.90
52024;DHT22;38038;45.922;13.604;2023-05-10T06:37:54;15.60;99.90
52024;DHT22;38038;45.922;13.604;2023-05-10T06:40:20;15.70;99.90
52024;DHT22;38038;45.922;13.604;2023-05-10T06:42:47;15.60;99.90
52024;DHT22;38038;45.922;13.604;2023-05-10T06:45:14;15.60;99.90
52024;DHT22;38038;45.922;13.604;2023-05-10T06:47:40;15.60;99.90
52024;DHT22;38038;45.922;13.604;2023-05-10T06:50:07;15.50;99.90
52024;DHT22;38038;45.922;13.604;2023-05-10T06:52:33;15.40;99.90
52024;DHT22;38038;45.922;13.604;2023-05-10T06:54:59;15.60;99.90
52024;DHT22;38038;45.922;13.604;2023-05-10T06:57:25;15.50;99.90
52024;DHT22;38038;45.922;13.604;2023-05-10T06:59:51;15.50;99.90
52024;DHT22;38038;45.922;13.604;2023-05-10T07:02:17;15.50;99.90
52024;DHT22;38038;45.922;13.604;2023-05-10T07:04:43;15.50;99.90
52024;DHT22;38038;45.922;13.604;2023-05-10T07:07:09;15.50;99.90
52024;DHT22;38038;45.922;13.604;2023-05-10T07:09:34;15.50;99.90
52024;DHT22;38038;45.922;13.604;2023-05-10T07:12:00;15.50;99.90
52024;DHT22;38038;45.922;13.604;2023-05-10T07:14:27;15.50;99.90
52024;DHT22;38038;45.922;13.604;2023-05-10T07:16:53;15.50;99.90
52024;DHT22;38038;45.922;13.604;2023-05-10T07:19:19;15.60;99.90
52024;DHT22;38038;45.922;13.604;2023-05-10T07:21:45;15.60;99.90
52024;DHT22;38038;45.922;13.604;2023-05-10T07:24:10;15.70;99.90
52024;DHT22;38038;45.922;13.604;2023-05-10T07:26:36;15.70;99.90
52024;DHT22;38038;45.922;13.604;2023-05-10T07:29:02;15.70;99.90
52024;DHT22;38038;45.922;13.604;2023-05-10T07:31:28;15.80;99.90
52024;DHT22;38038;45.922;13.604;2023-05-10T07:33:54;15.60;99.90
52024;DHT22;38038;45.922;13.604;2023-05-10T07:36:19;15.60;99.90
52024;DHT22;38038;45.922;13.604;2023-05-10T07:38:45;15.70;99.90
52024;DHT22;38038;45.922;13.604;2023-05-10T07:41:12;15.60;99.90
52024;DHT22;38038;45.922;13.604;2023-05-10T07:43:37;15.70;99.90
52024;DHT22;38038;45.922;13.604;2023-05-10T07:46:03;15.60;99.90
52024;DHT22;38038;45.922;13.604;2023-05-10T07:48:29;15.60;99.90
52024;DHT22;38038;45.922;13.604;2023-05-10T07:50:55;15.80;99.90
52024;DHT22;38038;45.922;13.604;2023-05-10T07:53:20;15.70;99.90
52024;DHT22;38038;45.922;13.604;2023-05-10T07:55:54;15.80;99.90
52024;DHT22;38038;45.922;13.604;2023-05-10T07:58:23;15.80;99.90
52024;DHT22;38038;45.922;13.604;2023-05-10T08:00:49;15.60;99.90
52024;DHT22;38038;45.922;13.604;2023-05-10T08:03:15;15.60;99.90
52024;DHT22;38038;45.922;13.604;2023-05-10T08:05:40;15.60;99.90
52024;DHT22;38038;45.922;13.604;2023-05-10T08:08:06;15.80;99.90
52024;DHT22;38038;45.922;13.604;2023-05-10T08:10:32;15.80;99.90
52024;DHT22;38038;45.922;13.604;2023-05-10T08:12:58;15.90;99.90
52024;DHT22;38038;45.922;13.604;2023-05-10T08:15:24;15.90;99.90
52024;DHT22;38038;45.922;13.604;2023-05-10T08:17:51;15.90;99.90
52024;DHT22;38038;45.922;13.604;2023-05-10T08:20:17;15.90;99.90
52024;DHT22;38038;45.922;13.604;2023-05-10T08:22:45;15.90;99.90
52024;DHT22;38038;45.922;13.604;2023-05-10T08:25:10;15.70;99.90
52024;DHT22;38038;45.922;13.604;2023-05-10T08:27:36;15.70;99.90
52024;DHT22;38038;45.922;13.604;2023-05-10T08:30:02;15.80;99.90
52024;DHT22;38038;45.922;13.604;2023-05-10T08:32:27;15.80;99.90
52024;DHT22;38038;45.922;13.604;2023-05-10T08:34:53;15.80;99.90
52024;DHT22;38038;45.922;13.604;2023-05-10T08:37:19;15.90;99.90
52024;DHT22;38038;45.922;13.604;2023-05-10T08:39:45;15.80;99.90
52024;DHT22;38038;45.922;13.604;2023-05-10T08:42:16;15.70;99.90
52024;DHT22;38038;45.922;13.604;2023-05-10T08:44:46;15.70;99.90
52024;DHT22;38038;45.922;13.604;2023-05-10T08:47:15;15.60;99.90
52024;DHT22;38038;45.922;13.604;2023-05-10T08:49:41;15.50;99.90
52024;DHT22;38038;45.922;13.604;2023-05-10T08:52:10;15.50;99.90
52024;DHT22;38038;45.922;13.604;2023-05-10T08:54:38;15.50;99.90
52024;DHT22;38038;45.922;13.604;2023-05-10T08:57:04;15.50;99.90
52024;DHT22;38038;45.922;13.604;2023-05-10T08:59:30;15.60;99.90
52024;DHT22;38038;45.922;13.604;2023-05-10T09:01:59;15.60;99.90
52024;DHT22;38038;45.922;13.604;2023-05-10T09:04:25;15.60;99.90
52024;DHT22;38038;45.922;13.604;2023-05-10T09:06:51;15.60;99.90
52024;DHT22;38038;45.922;13.604;2023-05-10T09:09:18;15.50;99.90
52024;DHT22;38038;45.922;13.604;2023-05-10T09:11:44;15.50;99.90
52024;DHT22;38038;45.922;13.604;2023-05-10T09:14:11;15.50;99.90
52024;DHT22;38038;45.922;13.604;2023-05-10T09:16:38;15.60;99.90
52024;DHT22;38038;45.922;13.604;2023-05-10T09:19:03;15.50;99.90
52024;DHT22;38038;45.922;13.604;2023-05-10T09:21:30;15.30;99.90
52024;DHT22;38038;45.922;13.604;2023-05-10T09:23:56;15.10;99.90
52024;DHT22;38038;45.922;13.604;2023-05-10T09:26:23;15.10;99.90
52024;DHT22;38038;45.922;13.604;2023-05-10T09:28:59;15.00;99.90
52024;DHT22;38038;45.922;13.604;2023-05-10T09:31:49;15.00;99.90
52024;DHT22;38038;45.922;13.604;2023-05-10T09:34:31;14.90;99.90
52024;DHT22;38038;45.922;13.604;2023-05-10T09:36:59;14.90;99.90
52024;DHT22;38038;45.922;13.604;2023-05-10T09:39:37;14.90;99.90
52024;DHT22;38038;45.922;13.604;2023-05-10T09:42:11;14.80;99.90
52024;DHT22;38038;45.922;13.604;2023-05-10T09:44:41;14.90;99.90
52024;DHT22;38038;45.922;13.604;2023-05-10T09:47:08;15.00;99.90
52024;DHT22;38038;45.922;13.604;2023-05-10T09:49:34;15.00;99.90
52024;DHT22;38038;45.922;13.604;2023-05-10T09:52:05;14.90;99.90
52024;DHT22;38038;45.922;13.604;2023-05-10T09:54:31;14.80;99.90
52024;DHT22;38038;45.922;13.604;2023-05-10T09:56:57;14.60;99.90
52024;DHT22;38038;45.922;13.604;2023-05-10T09:59:25;14.50;99.90
52024;DHT22;38038;45.922;13.604;2023-05-10T10:01:56;14.60;99.90
52024;DHT22;38038;45.922;13.604;2023-05-10T10:04:22;14.60;99.90
52024;DHT22;38038;45.922;13.604;2023-05-10T10:06:59;14.60;99.90
52024;DHT22;38038;45.922;13.604;2023-05-10T10:09:26;14.50;99.90
52024;DHT22;38038;45.922;13.604;2023-05-10T10:11:52;14.50;99.90
52024;DHT22;38038;45.922;13.604;2023-05-10T10:14:19;14.40;99.90
52024;DHT22;38038;45.922;13.604;2023-05-10T10:16:46;14.40;99.90
52024;DHT22;38038;45.922;13.604;2023-05-10T10:19:12;14.30;99.90
52024;DHT22;38038;45.922;13.604;2023-05-10T10:21:38;14.20;99.90
52024;DHT22;38038;45.922;13.604;2023-05-10T10:24:03;14.20;99.90
52024;DHT22;38038;45.922;13.604;2023-05-10T10:26:35;14.20;99.90
52024;DHT22;38038;45.922;13.604;2023-05-10T10:31:41;14.10;99.90
52024;DHT22;38038;45.922;13.604;2023-05-10T10:34:26;14.20;99.90
52024;DHT22;38038;45.922;13.604;2023-05-10T10:36:56;14.30;99.90
52024;DHT22;38038;45.922;13.604;2023-05-10T10:39:24;14.20;99.90
52024;DHT22;38038;45.922;13.604;2023-05-10T10:41:57;14.30;99.90
52024;DHT22;38038;45.922;13.604;2023-05-10T10:47:07;14.40;99.90
52024;DHT22;38038;45.922;13.604;2023-05-10T10:54:41;14.30;99.90
52024;DHT22;38038;45.922;13.604;2023-05-10T10:57:11;14.40;99.90
52024;DHT22;38038;45.922;13.604;2023-05-10T10:59:43;14.30;99.90
52024;DHT22;38038;45.922;13.604;2023-05-10T11:02:10;14.30;99.90
52024;DHT22;38038;45.922;13.604;2023-05-10T11:04:43;14.30;99.90
52024;DHT22;38038;45.922;13.604;2023-05-10T11:07:18;14.30;99.90
52024;DHT22;38038;45.922;13.604;2023-05-10T11:09:47;14.30;99.90
52024;DHT22;38038;45.922;13.604;2023-05-10T11:12:12;14.10;99.90
52024;DHT22;38038;45.922;13.604;2023-05-10T11:14:38;14.30;99.90
52024;DHT22;38038;45.922;13.604;2023-05-10T11:17:43;14.20;99.90
52024;DHT22;38038;45.922;13.604;2023-05-10T11:20:10;14.20;99.90
52024;DHT22;38038;45.922;13.604;2023-05-10T11:22:52;14.20;99.90
52024;DHT22;38038;45.922;13.604;2023-05-10T11:25:18;14.10;99.90
52024;DHT22;38038;45.922;13.604;2023-05-10T11:27:44;14.10;99.90
52024;DHT22;38038;45.922;13.604;2023-05-10T11:30:11;14.10;99.90
52024;DHT22;38038;45.922;13.604;2023-05-10T11:32:40;14.00;99.90
52024;DHT22;38038;45.922;13.604;2023-05-10T11:35:10;14.10;99.90
52024;DHT22;38038;45.922;13.604;2023-05-10T11:37:37;14.20;99.90
52024;DHT22;38038;45.922;13.604;2023-05-10T11:40:07;14.20;99.90
52024;DHT22;38038;45.922;13.604;2023-05-10T11:42:39;14.20;99.90
52024;DHT22;38038;45.922;13.604;2023-05-10T11:45:05;14.30;99.90
52024;DHT22;38038;45.922;13.604;2023-05-10T11:47:31;14.40;99.90
52024;DHT22;38038;45.922;13.604;2023-05-10T11:49:58;14.40;99.90
52024;DHT22;38038;45.922;13.604;2023-05-10T11:52:25;14.40;99.90
52024;DHT22;38038;45.922;13.604;2023-05-10T11:54:55;14.40;99.90
52024;DHT22;38038;45.922;13.604;2023-05-10T11:57:26;14.50;99.90
52024;DHT22;38038;45.922;13.604;2023-05-10T11:59:58;14.50;99.90
52024;DHT22;38038;45.922;13.604;2023-05-10T12:02:25;14.50;99.90
52024;DHT22;38038;45.922;13.604;2023-05-10T12:04:51;14.50;99.90
52024;DHT22;38038;45.922;13.604;2023-05-10T12:07:17;14.70;99.90
52024;DHT22;38038;45.922;13.604;2023-05-10T12:12:36;14.60;99.90
52024;DHT22;38038;45.922;13.604;2023-05-10T12:15:02;14.80;99.90
52024;DHT22;38038;45.922;13.604;2023-05-10T12:17:29;14.80;99.90
52024;DHT22;38038;45.922;13.604;2023-05-10T12:19:59;14.90;99.90
52024;DHT22;38038;45.922;13.604;2023-05-10T12:22:37;15.10;99.90
52024;DHT22;38038;45.922;13.604;2023-05-10T12:25:03;14.90;99.90
52024;DHT22;38038;45.922;13.604;2023-05-10T12:27:32;14.90;99.90
52024;DHT22;38038;45.922;13.604;2023-05-10T12:29:59;14.90;99.90
52024;DHT22;38038;45.922;13.604;2023-05-10T12:32:38;15.00;99.90
52024;DHT22;38038;45.922;13.604;2023-05-10T12:35:04;15.00;99.90
52024;DHT22;38038;45.922;13.604;2023-05-10T12:37:29;14.90;99.90
52024;DHT22;38038;45.922;13.604;2023-05-10T12:39:55;14.70;99.90
52024;DHT22;38038;45.922;13.604;2023-05-10T12:42:21;14.90;99.90
52024;DHT22;38038;45.922;13.604;2023-05-10T12:44:46;14.90;99.90
52024;DHT22;38038;45.922;13.604;2023-05-10T12:47:12;14.80;99.90
52024;DHT22;38038;45.922;13.604;2023-05-10T12:49:38;14.90;99.90
52024;DHT22;38038;45.922;13.604;2023-05-10T12:52:03;14.90;99.90
52024;DHT22;38038;45.922;13.604;2023-05-10T12:54:29;14.80;99.90
52024;DHT22;38038;45.922;13.604;2023-05-10T12:56:55;14.90;99.90
52024;DHT22;38038;45.922;13.604;2023-05-10T12:59:20;15.10;99.90
52024;DHT22;38038;45.922;13.604;2023-05-10T13:01:46;15.30;99.90
52024;DHT22;38038;45.922;13.604;2023-05-10T13:04:12;15.10;99.90
52024;DHT22;38038;45.922;13.604;2023-05-10T13:06:37;14.90;99.90
52024;DHT22;38038;45.922;13.604;2023-05-10T13:09:03;14.80;99.90
52024;DHT22;38038;45.922;13.604;2023-05-10T13:11:29;14.70;99.90
52024;DHT22;38038;45.922;13.604;2023-05-10T13:13:54;15.00;99.90
52024;DHT22;38038;45.922;13.604;2023-05-10T13:16:20;14.90;99.90
52024;DHT22;38038;45.922;13.604;2023-05-10T13:18:46;15.00;99.90
52024;DHT22;38038;45.922;13.604;2023-05-10T13:21:12;15.10;99.90
52024;DHT22;38038;45.922;13.604;2023-05-10T13:23:37;14.90;99.90
52024;DHT22;38038;45.922;13.604;2023-05-10T13:26:03;14.80;99.90
52024;DHT22;38038;45.922;13.604;2023-05-10T13:28:29;14.80;99.90
52024;DHT22;38038;45.922;13.604;2023-05-10T13:30:55;15.10;99.90
52024;DHT22;38038;45.922;13.604;2023-05-10T13:33:21;15.00;99.90
52024;DHT22;38038;45.922;13.604;2023-05-10T13:35:47;15.00;99.90
52024;DHT22;38038;45.922;13.604;2023-05-10T13:38:12;15.10;99.90
52024;DHT22;38038;45.922;13.604;2023-05-10T13:40:39;15.10;99.90
52024;DHT22;38038;45.922;13.604;2023-05-10T13:43:04;14.90;99.90
52024;DHT22;38038;45.922;13.604;2023-05-10T13:45:30;14.80;99.90
52024;DHT22;38038;45.922;13.604;2023-05-10T13:47:56;15.00;99.90
52024;DHT22;38038;45.922;13.604;2023-05-10T13:50:21;15.20;99.90
52024;DHT22;38038;45.922;13.604;2023-05-10T13:52:47;15.40;99.90
52024;DHT22;38038;45.922;13.604;2023-05-10T13:55:13;15.60;99.90
52024;DHT22;38038;45.922;13.604;2023-05-10T13:57:38;15.70;99.90
52024;DHT22;38038;45.922;13.604;2023-05-10T14:00:05;15.80;99.90
52024;DHT22;38038;45.922;13.604;2023-05-10T14:02:31;15.80;99.90
52024;DHT22;38038;45.922;13.604;2023-05-10T14:04:56;15.50;99.90
52024;DHT22;38038;45.922;13.604;2023-05-10T14:07:22;15.30;99.90
52024;DHT22;38038;45.922;13.604;2023-05-10T14:09:48;15.30;99.90
52024;DHT22;38038;45.922;13.604;2023-05-10T14:12:13;15.60;99.90
52024;DHT22;38038;45.922;13.604;2023-05-10T14:14:40;15.70;99.90
52024;DHT22;38038;45.922;13.604;2023-05-10T14:17:05;16.00;99.90
52024;DHT22;38038;45.922;13.604;2023-05-10T14:19:31;16.00;99.90
52024;DHT22;38038;45.922;13.604;2023-05-10T14:21:59;15.80;99.90
52024;DHT22;38038;45.922;13.604;2023-05-10T14:24:25;15.70;99.90
52024;DHT22;38038;45.922;13.604;2023-05-10T14:26:51;15.60;99.90
52024;DHT22;38038;45.922;13.604;2023-05-10T14:29:19;15.50;99.90
52024;DHT22;38038;45.922;13.604;2023-05-10T14:31:45;15.50;99.90
52024;DHT22;38038;45.922;13.604;2023-05-10T14:34:11;15.40;99.90
52024;DHT22;38038;45.922;13.604;2023-05-10T14:36:36;15.30;99.90
52024;DHT22;38038;45.922;13.604;2023-05-10T14:39:02;15.30;99.90
52024;DHT22;38038;45.922;13.604;2023-05-10T14:41:28;15.30;99.90
52024;DHT22;38038;45.922;13.604;2023-05-10T14:43:55;15.40;99.90
52024;DHT22;38038;45.922;13.604;2023-05-10T14:46:21;15.40;99.90
52024;DHT22;38038;45.922;13.604;2023-05-10T14:48:47;15.50;99.90
52024;DHT22;38038;45.922;13.604;2023-05-10T14:51:12;15.60;99.90
52024;DHT22;38038;45.922;13.604;2023-05-10T14:53:38;15.80;99.90
52024;DHT22;38038;45.922;13.604;2023-05-10T14:56:04;15.70;99.90
52024;DHT22;38038;45.922;13.604;2023-05-10T14:58:29;15.80;99.90
52024;DHT22;38038;45.922;13.604;2023-05-10T15:00:58;15.80;99.90
52024;DHT22;38038;45.922;13.604;2023-05-10T15:03:24;15.70;99.90
52024;DHT22;38038;45.922;13.604;2023-05-10T15:05:50;15.90;99.90
52024;DHT22;38038;45.922;13.604;2023-05-10T15:08:16;15.80;99.90
52024;DHT22;38038;45.922;13.604;2023-05-10T15:10:42;16.00;99.90
52024;DHT22;38038;45.922;13.604;2023-05-10T15:13:08;15.70;99.90
52024;DHT22;38038;45.922;13.604;2023-05-10T15:15:33;15.30;99.90
52024;DHT22;38038;45.922;13.604;2023-05-10T15:17:59;15.20;99.90
52024;DHT22;38038;45.922;13.604;2023-05-10T15:20:25;15.30;99.90
52024;DHT22;38038;45.922;13.604;2023-05-10T15:22:51;15.50;99.90
52024;DHT22;38038;45.922;13.604;2023-05-10T15:25:16;15.50;99.90
52024;DHT22;38038;45.922;13.604;2023-05-10T15:27:42;15.30;99.90
52024;DHT22;38038;45.922;13.604;2023-05-10T15:30:09;15.20;99.90
52024;DHT22;38038;45.922;13.604;2023-05-10T15:32:35;15.20;99.90
52024;DHT22;38038;45.922;13.604;2023-05-10T15:35:01;15.20;99.90
52024;DHT22;38038;45.922;13.604;2023-05-10T15:37:27;15.20;99.90
52024;DHT22;38038;45.922;13.604;2023-05-10T15:39:53;15.10;99.90
52024;DHT22;38038;45.922;13.604;2023-05-10T15:42:19;15.20;99.90
52024;DHT22;38038;45.922;13.604;2023-05-10T15:44:44;15.10;99.90